createdAt,value
2022-10-17T00:00:57.711Z,95.32
2022-10-17T00:01:57.693Z,95.32
2022-10-17T00:03:50.678Z,95.62
2022-10-17T00:04:50.659Z,95.32
2022-10-17T00:06:54.661Z,95.01
2022-10-17T00:07:54.651Z,95.01
2022-10-17T00:09:47.756Z,95.42
2022-10-17T00:10:47.736Z,95.01
2022-10-17T00:12:40.643Z,94.71
2022-10-17T00:13:40.634Z,95.01
2022-10-17T00:15:44.613Z,94.71
2022-10-17T00:16:44.598Z,95.01
2022-10-17T00:18:48.670Z,94.81
2022-10-17T00:19:48.570Z,94.60
2022-10-17T00:20:48.585Z,94.87
2022-10-17T00:21:48.561Z,94.50
2022-10-17T00:22:48.568Z,94.50
2022-10-17T00:23:48.552Z,94.40
2022-10-17T00:24:48.553Z,94.71
2022-10-17T00:25:48.525Z,95.01
2022-10-17T00:26:48.520Z,94.91
2022-10-17T00:27:48.520Z,94.91
2022-10-17T00:28:48.529Z,94.91
2022-10-17T00:29:48.499Z,94.95
2022-10-17T00:30:48.494Z,94.91
2022-10-17T00:31:48.556Z,94.81
2022-10-17T00:32:48.480Z,94.71
2022-10-17T00:33:48.474Z,94.91
2022-10-17T00:34:48.469Z,94.81
2022-10-17T00:35:48.462Z,95.12
2022-10-17T00:36:48.455Z,94.91
2022-10-17T00:37:48.449Z,95.26
2022-10-17T00:38:48.443Z,95.42
2022-10-17T00:39:48.436Z,95.47
2022-10-17T00:40:48.447Z,95.36
2022-10-17T00:41:48.422Z,95.67
2022-10-17T00:42:48.418Z,95.73
2022-10-17T00:43:48.415Z,96.28
2022-10-17T00:44:48.432Z,95.77
2022-10-17T00:45:48.395Z,95.87
2022-10-17T00:46:48.391Z,95.87
2022-10-17T00:47:48.385Z,95.97
2022-10-17T00:48:48.377Z,95.97
2022-10-17T00:49:48.428Z,96.18
2022-10-17T00:50:48.364Z,96.48
2022-10-17T00:51:48.361Z,96.48
2022-10-17T00:52:48.353Z,96.08
2022-10-17T00:53:48.345Z,95.97
2022-10-17T00:54:48.378Z,96.03
2022-10-17T00:55:48.333Z,95.62
2022-10-17T00:56:48.327Z,95.67
2022-10-17T00:57:48.319Z,95.62
2022-10-17T00:58:48.320Z,96.03
2022-10-17T00:59:48.310Z,95.62
2022-10-17T01:00:48.299Z,95.73
2022-10-17T01:01:48.336Z,95.93
2022-10-17T01:02:48.291Z,95.83
2022-10-17T01:03:48.282Z,96.14
2022-10-17T01:04:48.275Z,95.73
2022-10-17T01:05:48.269Z,95.73
2022-10-17T01:06:48.261Z,95.32
2022-10-17T01:07:48.257Z,96.03
2022-10-17T01:08:48.248Z,95.87
2022-10-17T01:09:48.242Z,96.28
2022-10-17T01:10:48.237Z,96.59
2022-10-17T01:11:48.230Z,96.48
2022-10-17T01:12:48.226Z,96.38
2022-10-17T01:13:48.219Z,96.18
2022-10-17T01:14:48.210Z,96.38
2022-10-17T01:15:48.204Z,96.48
2022-10-17T01:16:48.200Z,96.14
2022-10-17T01:17:48.190Z,96.48
2022-10-17T01:18:48.185Z,96.38
2022-10-17T01:19:48.178Z,95.83
2022-10-17T01:20:48.172Z,95.87
2022-10-17T01:21:48.165Z,96.08
2022-10-17T01:22:48.158Z,96.08
2022-10-17T01:23:48.152Z,96.28
2022-10-17T01:24:48.148Z,95.87
2022-10-17T01:25:48.138Z,95.97
2022-10-17T01:26:48.133Z,95.87
2022-10-17T01:27:48.130Z,95.93
2022-10-17T01:28:48.121Z,96.08
2022-10-17T01:29:48.113Z,96.08
2022-10-17T01:30:48.106Z,96.48
2022-10-17T01:31:48.102Z,96.48
2022-10-17T01:32:48.095Z,96.69
2022-10-17T01:33:48.087Z,96.28
2022-10-17T01:34:48.081Z,96.18
2022-10-17T01:35:48.080Z,96.18
2022-10-17T01:36:48.067Z,96.48
2022-10-17T01:37:48.109Z,96.48
2022-10-17T01:38:48.055Z,96.59
2022-10-17T01:39:48.052Z,96.59
2022-10-17T01:40:48.042Z,96.38
2022-10-17T01:41:48.033Z,96.59
2022-10-17T01:42:48.028Z,96.38
2022-10-17T01:43:48.021Z,96.38
2022-10-17T01:44:48.015Z,96.38
2022-10-17T01:45:48.009Z,96.18
2022-10-17T01:46:48.034Z,96.38
2022-10-17T01:47:47.995Z,96.38
2022-10-17T01:48:47.988Z,96.38
2022-10-17T01:49:47.981Z,96.43
2022-10-17T01:50:47.975Z,96.38
2022-10-17T01:51:47.971Z,96.79
2022-10-17T01:52:47.962Z,96.48
2022-10-17T01:53:47.956Z,96.69
2022-10-17T01:54:47.951Z,97.00
2022-10-17T01:55:48.031Z,96.73
2022-10-17T01:56:47.936Z,96.69
2022-10-17T01:57:47.927Z,96.63
2022-10-17T01:58:47.929Z,96.43
2022-10-17T01:59:47.916Z,96.84
2022-10-17T02:00:47.909Z,96.43
2022-10-17T02:01:47.942Z,96.73
2022-10-17T02:02:47.897Z,96.94
2022-10-17T02:03:47.890Z,96.78
2022-10-17T02:04:47.883Z,96.73
2022-10-17T02:05:47.878Z,96.84
2022-10-17T02:06:47.872Z,96.73
2022-10-17T02:07:47.863Z,97.29
2022-10-17T02:08:47.856Z,97.80
2022-10-17T02:09:47.851Z,98.47
2022-10-17T02:10:47.847Z,98.36
2022-10-17T02:11:47.838Z,97.96
2022-10-17T02:12:47.828Z,97.96
2022-10-17T02:13:47.820Z,98.11
2022-10-17T02:14:47.819Z,97.90
2022-10-17T02:15:47.809Z,99.69
2022-10-17T02:16:47.802Z,99.59
2022-10-17T02:17:47.795Z,99.79
2022-10-17T02:18:47.789Z,99.99
2022-10-17T02:19:47.783Z,99.99
2022-10-17T02:20:47.776Z,99.99
2022-10-17T02:21:47.769Z,99.99
2022-10-17T02:22:47.765Z,99.50
2022-10-17T02:23:47.756Z,99.45
2022-10-17T02:24:47.747Z,99.25
2022-10-17T02:25:47.742Z,99.55
2022-10-17T02:26:47.734Z,99.45
2022-10-17T02:27:47.730Z,99.45
2022-10-17T02:28:47.747Z,98.74
2022-10-17T02:29:47.758Z,99.35
2022-10-17T02:30:47.709Z,99.55
2022-10-17T02:31:47.703Z,98.43
2022-10-17T02:32:50.173Z,98.43
2022-10-17T02:33:47.691Z,99.25
2022-10-17T02:34:47.682Z,99.35
2022-10-17T02:35:47.673Z,99.20
2022-10-17T02:36:47.668Z,98.49
2022-10-17T02:37:47.661Z,97.98
2022-10-17T02:38:47.656Z,97.83
2022-10-17T02:39:47.650Z,97.88
2022-10-17T02:40:47.641Z,97.78
2022-10-17T02:41:47.633Z,97.83
2022-10-17T02:42:47.629Z,97.63
2022-10-17T02:43:47.624Z,97.53
2022-10-17T02:44:47.615Z,97.63
2022-10-17T02:45:47.607Z,97.63
2022-10-17T02:46:47.602Z,97.42
2022-10-17T02:47:47.596Z,97.73
2022-10-17T02:48:47.591Z,97.83
2022-10-17T02:49:47.581Z,97.63
2022-10-17T02:50:47.575Z,97.73
2022-10-17T02:51:47.569Z,97.73
2022-10-17T02:52:47.562Z,97.83
2022-10-17T02:53:47.554Z,97.63
2022-10-17T02:54:47.550Z,97.53
2022-10-17T02:55:47.605Z,97.83
2022-10-17T02:56:47.537Z,97.83
2022-10-17T02:57:47.530Z,97.93
2022-10-17T02:58:47.523Z,97.83
2022-10-17T02:59:47.517Z,97.99
2022-10-17T03:00:47.510Z,98.24
2022-10-17T03:01:47.505Z,98.34
2022-10-17T03:02:47.499Z,98.44
2022-10-17T03:03:47.491Z,98.44
2022-10-17T03:04:47.484Z,98.44
2022-10-17T03:05:47.478Z,98.80
2022-10-17T03:06:47.473Z,99.36
2022-10-17T03:07:47.465Z,98.85
2022-10-17T03:08:47.460Z,99.36
2022-10-17T03:09:47.455Z,99.11
2022-10-17T03:10:47.447Z,99.36
2022-10-17T03:11:47.442Z,99.36
2022-10-17T03:12:47.433Z,99.36
2022-10-17T03:13:47.426Z,99.11
2022-10-17T03:14:47.423Z,99.16
2022-10-17T03:15:47.416Z,99.36
2022-10-17T03:16:47.407Z,99.16
2022-10-17T03:17:47.405Z,98.85
2022-10-17T03:18:50.001Z,99.26
2022-10-17T03:19:47.389Z,99.56
2022-10-17T03:20:47.382Z,99.66
2022-10-17T03:21:47.377Z,99.56
2022-10-17T03:22:47.371Z,99.46
2022-10-17T03:23:47.364Z,99.77
2022-10-17T03:24:47.358Z,99.66
2022-10-17T03:25:47.349Z,99.56
2022-10-17T03:27:47.340Z,99.31
2022-10-17T03:28:50.640Z,99.87
2022-10-17T03:29:47.327Z,99.99
2022-10-17T03:30:47.320Z,99.99
2022-10-17T03:31:47.314Z,99.82
2022-10-17T03:32:47.308Z,99.66
2022-10-17T03:33:47.301Z,99.99
2022-10-17T03:34:47.296Z,99.36
2022-10-17T03:35:47.352Z,99.82
2022-10-17T03:36:47.286Z,99.99
2022-10-17T03:37:47.276Z,99.99
2022-10-17T03:38:47.309Z,99.87
2022-10-17T03:39:47.267Z,99.46
2022-10-17T03:40:47.258Z,99.97
2022-10-17T03:41:47.252Z,99.87
2022-10-17T03:42:47.245Z,99.99
2022-10-17T03:43:47.239Z,99.99
2022-10-17T03:44:47.232Z,99.99
2022-10-17T03:45:47.225Z,99.99
2022-10-17T03:46:47.221Z,99.97
2022-10-17T03:47:47.214Z,99.99
2022-10-17T03:48:47.210Z,99.99
2022-10-17T03:49:47.199Z,99.99
2022-10-17T03:50:47.198Z,99.99
2022-10-17T03:51:47.188Z,99.97
2022-10-17T03:52:47.185Z,99.36
2022-10-17T03:53:47.183Z,99.97
2022-10-17T03:54:47.170Z,99.99
2022-10-17T03:55:47.165Z,99.99
2022-10-17T03:56:47.205Z,99.99
2022-10-17T03:57:47.151Z,99.99
2022-10-17T03:58:47.145Z,99.99
2022-10-17T03:59:47.139Z,99.99
2022-10-17T04:00:47.132Z,99.99
2022-10-17T04:01:47.149Z,99.99
2022-10-17T04:02:47.119Z,99.99
2022-10-17T04:03:47.114Z,99.99
2022-10-17T04:04:47.107Z,99.99
2022-10-17T04:05:47.126Z,99.99
2022-10-17T04:06:47.095Z,99.99
2022-10-17T04:07:47.087Z,99.99
2022-10-17T04:08:47.081Z,99.99
2022-10-17T04:09:47.076Z,99.99
2022-10-17T04:10:47.070Z,99.99
2022-10-17T04:11:47.063Z,99.99
2022-10-17T04:12:47.057Z,99.99
2022-10-17T04:13:47.050Z,99.99
2022-10-17T04:14:47.045Z,99.99
2022-10-17T04:15:47.038Z,99.99
2022-10-17T04:16:47.030Z,99.99
2022-10-17T04:17:48.636Z,99.99
2022-10-17T04:18:47.019Z,99.99
2022-10-17T04:19:47.012Z,99.99
2022-10-17T04:20:47.006Z,99.99
2022-10-17T04:21:47.000Z,99.99
2022-10-17T04:22:46.993Z,99.99
2022-10-17T04:23:46.988Z,99.99
2022-10-17T04:24:46.980Z,99.99
2022-10-17T04:25:46.980Z,99.99
2022-10-17T04:26:46.972Z,99.99
2022-10-17T04:27:46.963Z,99.99
2022-10-17T04:28:46.958Z,99.99
2022-10-17T04:29:46.951Z,99.99
2022-10-17T04:30:49.010Z,99.99
2022-10-17T04:31:46.937Z,99.99
2022-10-17T04:32:46.932Z,99.99
2022-10-17T04:33:46.925Z,99.99
2022-10-17T04:34:46.919Z,99.99
2022-10-17T04:35:46.914Z,99.99
2022-10-17T04:36:46.909Z,99.99
2022-10-17T04:37:46.899Z,99.99
2022-10-17T04:38:46.894Z,99.99
2022-10-17T04:39:46.888Z,99.99
2022-10-17T04:40:46.894Z,99.99
2022-10-17T04:41:46.874Z,99.99
2022-10-17T04:42:46.874Z,99.99
2022-10-17T04:43:50.119Z,99.99
2022-10-17T04:44:46.858Z,99.99
2022-10-17T04:45:46.852Z,99.99
2022-10-17T04:46:46.844Z,99.99
2022-10-17T04:47:46.837Z,99.99
2022-10-17T04:48:46.831Z,99.99
2022-10-17T04:49:46.828Z,99.99
2022-10-17T04:50:46.819Z,99.99
2022-10-17T04:51:46.813Z,99.99
2022-10-17T04:52:46.806Z,99.99
2022-10-17T04:53:46.800Z,99.99
2022-10-17T04:54:46.794Z,99.99
2022-10-17T04:55:46.791Z,99.99
2022-10-17T04:56:46.780Z,99.99
2022-10-17T04:57:46.777Z,99.99
2022-10-17T04:58:46.768Z,99.99
2022-10-17T04:59:46.763Z,99.99
2022-10-17T05:00:46.778Z,99.99
2022-10-17T05:01:46.752Z,99.99
2022-10-17T05:02:53.900Z,99.99
2022-10-17T05:04:50.724Z,99.99
2022-10-17T05:05:50.709Z,99.99
2022-10-17T05:07:54.695Z,99.99
2022-10-17T05:08:54.676Z,99.99
2022-10-17T05:11:58.655Z,99.99
2022-10-17T05:13:51.575Z,99.99
2022-10-17T05:14:51.561Z,99.99
2022-10-17T05:16:55.566Z,99.99
2022-10-17T05:17:55.556Z,99.99
2022-10-17T05:19:48.661Z,99.99
2022-10-17T05:20:48.646Z,99.99
2022-10-17T05:22:52.648Z,99.99
2022-10-17T05:23:52.633Z,99.99
2022-10-17T05:25:56.614Z,99.99
2022-10-17T05:26:56.604Z,99.99
2022-10-17T05:28:49.811Z,99.99
2022-10-17T05:29:49.690Z,99.99
2022-10-17T05:31:53.754Z,99.99
2022-10-17T05:32:53.667Z,99.99
2022-10-17T05:34:57.651Z,99.99
2022-10-17T05:35:57.633Z,99.99
2022-10-17T05:37:50.737Z,99.99
2022-10-17T05:38:50.721Z,99.99
2022-10-17T05:40:54.695Z,99.99
2022-10-17T05:41:54.685Z,99.99
2022-10-17T05:43:47.607Z,99.99
2022-10-17T05:44:47.597Z,99.99
2022-10-17T05:46:51.566Z,99.99
2022-10-17T05:47:51.555Z,99.99
2022-10-17T05:49:55.545Z,99.99
2022-10-17T05:50:55.529Z,99.99
2022-10-17T05:52:48.633Z,99.99
2022-10-17T05:53:48.615Z,99.99
2022-10-17T05:55:52.603Z,99.99
2022-10-17T05:56:52.599Z,99.99
2022-10-17T05:59:00.060Z,99.99
2022-10-17T05:59:56.583Z,99.99
2022-10-17T06:02:00.684Z,99.99
2022-10-17T06:03:00.571Z,99.99
2022-10-17T06:05:04.557Z,99.99
2022-10-17T06:06:04.545Z,99.99
2022-10-17T06:08:08.539Z,99.99
2022-10-17T06:09:08.524Z,99.99
2022-10-17T06:11:12.505Z,99.99
2022-10-17T06:12:12.505Z,99.99
2022-10-17T06:14:05.404Z,99.99
2022-10-17T06:15:05.387Z,99.99
2022-10-17T06:16:58.619Z,99.99
2022-10-17T06:17:58.617Z,99.99
2022-10-17T06:20:02.602Z,99.99
2022-10-17T06:21:02.590Z,99.99
2022-10-17T06:23:06.625Z,99.99
2022-10-17T06:24:06.609Z,99.99
2022-10-17T06:26:10.590Z,99.99
2022-10-17T06:27:11.954Z,99.99
2022-10-17T06:29:14.555Z,99.99
2022-10-17T06:30:14.539Z,99.99
2022-10-17T06:32:18.550Z,99.99
2022-10-17T06:33:18.530Z,99.99
2022-10-17T06:35:22.528Z,99.99
2022-10-17T06:36:22.519Z,99.99
2022-10-17T06:38:26.511Z,99.99
2022-10-17T06:39:26.500Z,99.99
2022-10-17T06:41:30.473Z,99.99
2022-10-17T06:42:30.464Z,99.99
2022-10-17T06:44:34.462Z,99.99
2022-10-17T06:45:34.445Z,99.99
2022-10-17T06:47:38.430Z,99.99
2022-10-17T06:48:38.412Z,99.95
2022-10-17T06:50:42.399Z,99.74
2022-10-17T06:51:42.383Z,99.69
2022-10-17T06:53:35.291Z,99.19
2022-10-17T06:54:35.279Z,98.99
2022-10-17T06:56:28.625Z,98.54
2022-10-17T06:57:28.792Z,98.84
2022-10-17T06:59:21.718Z,97.52
2022-10-17T07:00:21.704Z,97.42
2022-10-17T07:02:25.695Z,97.47
2022-10-17T07:03:25.681Z,97.22
2022-10-17T07:05:29.675Z,97.07
2022-10-17T07:06:29.662Z,95.95
2022-10-17T07:08:22.767Z,96.26
2022-10-17T07:09:22.754Z,95.40
2022-10-17T07:11:26.739Z,95.71
2022-10-17T07:12:26.732Z,94.90
2022-10-17T07:14:30.738Z,95.46
2022-10-17T07:15:30.731Z,94.65
2022-10-17T07:17:34.710Z,94.35
2022-10-17T07:18:34.696Z,93.84
2022-10-17T07:20:38.702Z,93.19
2022-10-17T07:21:39.358Z,93.43
2022-10-17T07:23:31.639Z,93.59
2022-10-17T07:24:31.620Z,92.99
2022-10-17T07:26:35.615Z,92.58
2022-10-17T07:27:35.604Z,92.58
2022-10-17T07:29:39.605Z,92.48
2022-10-17T07:30:39.590Z,92.79
2022-10-17T07:32:43.606Z,92.18
2022-10-17T07:33:43.660Z,92.13
2022-10-17T07:35:47.566Z,91.53
2022-10-17T07:36:47.559Z,91.12
2022-10-17T07:38:51.595Z,91.32
2022-10-17T07:39:51.583Z,91.08
2022-10-17T07:40:51.577Z,90.78
2022-10-17T07:41:51.573Z,90.47
2022-10-17T07:42:51.569Z,90.27
2022-10-17T07:43:51.561Z,89.97
2022-10-17T07:44:51.555Z,90.17
2022-10-17T07:45:51.553Z,90.17
2022-10-17T07:46:51.548Z,90.17
2022-10-17T07:47:51.543Z,90.12
2022-10-17T07:48:51.540Z,90.03
2022-10-17T07:49:51.675Z,90.12
2022-10-17T07:50:51.531Z,89.62
2022-10-17T07:51:51.527Z,89.72
2022-10-17T07:52:51.522Z,89.83
2022-10-17T07:53:51.518Z,89.42
2022-10-17T07:54:51.516Z,89.62
2022-10-17T07:55:51.506Z,89.32
2022-10-17T07:56:51.503Z,89.32
2022-10-17T07:57:51.501Z,89.01
2022-10-17T07:58:51.529Z,89.22
2022-10-17T07:59:51.489Z,88.81
2022-10-17T08:00:51.602Z,88.47
2022-10-17T08:01:51.482Z,88.67
2022-10-17T08:02:51.476Z,88.57
2022-10-17T08:03:51.477Z,88.47
2022-10-17T08:04:51.469Z,88.47
2022-10-17T08:05:51.465Z,87.96
2022-10-17T08:06:56.450Z,88.26
2022-10-17T08:07:51.454Z,87.56
2022-10-17T08:08:51.454Z,87.05
2022-10-17T08:09:51.446Z,86.41
2022-10-17T08:10:51.442Z,87.32
2022-10-17T08:11:51.437Z,87.72
2022-10-17T08:12:51.432Z,87.52
2022-10-17T08:13:51.428Z,86.61
2022-10-17T08:14:51.424Z,87.21
2022-10-17T08:15:51.420Z,87.12
2022-10-17T08:16:51.416Z,86.51
2022-10-17T08:17:51.412Z,86.81
2022-10-17T08:18:51.407Z,86.41
2022-10-17T08:19:51.400Z,86.41
2022-10-17T08:20:51.397Z,86.16
2022-10-17T08:21:51.397Z,85.96
2022-10-17T08:22:51.397Z,86.27
2022-10-17T08:23:51.385Z,85.86
2022-10-17T08:24:51.383Z,85.05
2022-10-17T08:25:51.378Z,85.25
2022-10-17T08:26:51.899Z,85.16
2022-10-17T08:27:51.368Z,85.92
2022-10-17T08:28:51.445Z,85.22
2022-10-17T08:29:51.361Z,85.02
2022-10-17T08:30:51.356Z,85.22
2022-10-17T08:31:54.169Z,85.31
2022-10-17T08:32:51.348Z,85.72
2022-10-17T08:33:51.344Z,85.72
2022-10-17T08:34:51.340Z,85.22
2022-10-17T08:35:51.336Z,85.31
2022-10-17T08:36:51.332Z,84.71
2022-10-17T08:37:51.329Z,84.57
2022-10-17T08:38:53.025Z,85.02
2022-10-17T08:39:51.320Z,85.02
2022-10-17T08:40:51.316Z,84.31
2022-10-17T08:41:51.313Z,84.57
2022-10-17T08:42:51.309Z,84.47
2022-10-17T08:43:51.303Z,84.88
2022-10-17T08:44:51.299Z,84.57
2022-10-17T08:45:51.296Z,84.27
2022-10-17T08:46:51.293Z,84.07
2022-10-17T08:47:51.289Z,83.56
2022-10-17T08:48:51.288Z,83.42
2022-10-17T08:49:51.282Z,83.52
2022-10-17T08:50:51.277Z,83.42
2022-10-17T08:51:51.273Z,83.42
2022-10-17T08:52:51.291Z,82.92
2022-10-17T08:53:51.268Z,83.32
2022-10-17T08:54:51.261Z,82.88
2022-10-17T08:55:51.394Z,83.18
2022-10-17T08:56:51.253Z,83.22
2022-10-17T08:57:51.251Z,82.88
2022-10-17T08:58:51.247Z,83.14
2022-10-17T08:59:51.243Z,82.58
2022-10-17T09:00:51.239Z,81.98
2022-10-17T09:01:51.236Z,82.84
2022-10-17T09:02:51.288Z,82.44
2022-10-17T09:03:51.228Z,82.54
2022-10-17T09:04:51.225Z,82.84
2022-10-17T09:05:51.221Z,82.34
2022-10-17T09:06:51.218Z,82.24
2022-10-17T09:07:51.216Z,82.04
2022-10-17T09:08:51.212Z,81.90
2022-10-17T09:09:51.207Z,82.44
2022-10-17T09:10:51.204Z,82.40
2022-10-17T09:11:51.200Z,82.10
2022-10-17T09:12:51.198Z,81.84
2022-10-17T09:13:51.195Z,81.49
2022-10-17T09:14:51.190Z,82.30
2022-10-17T09:15:51.192Z,81.90
2022-10-17T09:16:51.183Z,81.70
2022-10-17T09:17:51.181Z,80.99
2022-10-17T09:18:51.178Z,80.25
2022-10-17T09:19:51.179Z,80.95
2022-10-17T09:20:51.169Z,79.94
2022-10-17T09:21:51.168Z,80.21
2022-10-17T09:22:51.193Z,79.10
2022-10-17T09:23:53.235Z,78.90
2022-10-17T09:24:51.159Z,79.21
2022-10-17T09:25:51.154Z,78.90
2022-10-17T09:26:51.152Z,79.06
2022-10-17T09:27:51.148Z,78.36
2022-10-17T09:28:51.214Z,79.06
2022-10-17T09:29:51.142Z,78.56
2022-10-17T09:30:51.143Z,78.36
2022-10-17T09:31:51.165Z,78.77
2022-10-17T09:32:51.132Z,78.46
2022-10-17T09:33:55.139Z,78.06
2022-10-17T09:34:51.125Z,78.16
2022-10-17T09:35:51.124Z,78.33
2022-10-17T09:36:51.120Z,78.16
2022-10-17T09:37:51.118Z,78.22
2022-10-17T09:38:51.109Z,77.52
2022-10-17T09:39:51.111Z,77.42
2022-10-17T09:40:56.151Z,77.12
2022-10-17T09:41:51.105Z,77.32
2022-10-17T09:42:51.104Z,77.52
2022-10-17T09:43:51.099Z,76.38
2022-10-17T09:44:51.096Z,75.88
2022-10-17T09:45:51.098Z,75.48
2022-10-17T09:46:51.097Z,76.68
2022-10-17T09:47:51.108Z,75.78
2022-10-17T09:48:53.310Z,75.64
2022-10-17T09:49:51.084Z,75.34
2022-10-17T09:50:57.943Z,75.45
2022-10-17T09:51:51.078Z,75.64
2022-10-17T09:52:51.076Z,75.34
2022-10-17T09:53:51.071Z,75.45
2022-10-17T09:54:51.071Z,76.15
2022-10-17T09:55:51.069Z,73.84
2022-10-17T09:56:51.066Z,74.44
2022-10-17T09:57:51.062Z,74.80
2022-10-17T09:58:51.066Z,74.30
2022-10-17T09:59:51.058Z,73.80
2022-10-17T10:00:51.093Z,73.10
2022-10-17T10:01:51.055Z,74.30
2022-10-17T10:02:51.051Z,74.10
2022-10-17T10:03:51.050Z,74.27
2022-10-17T10:05:03.659Z,74.07
2022-10-17T10:05:51.043Z,74.60
2022-10-17T10:06:51.040Z,73.90
2022-10-17T10:07:51.038Z,73.47
2022-10-17T10:08:51.037Z,73.57
2022-10-17T10:09:51.074Z,73.23
2022-10-17T10:10:51.031Z,73.13
2022-10-17T10:11:51.031Z,73.93
2022-10-17T10:12:51.025Z,73.73
2022-10-17T10:13:51.026Z,73.33
2022-10-17T10:14:54.618Z,73.43
2022-10-17T10:15:51.031Z,73.19
2022-10-17T10:16:51.033Z,72.80
2022-10-17T10:17:51.017Z,73.30
2022-10-17T10:18:51.241Z,72.80
2022-10-17T10:19:51.011Z,72.00
2022-10-17T10:20:51.014Z,70.89
2022-10-17T10:21:51.008Z,71.06
2022-10-17T10:22:51.005Z,70.86
2022-10-17T10:23:51.004Z,70.66
2022-10-17T10:24:51.007Z,70.19
2022-10-17T10:25:51.000Z,70.56
2022-10-17T10:26:50.997Z,70.96
2022-10-17T10:27:50.996Z,70.86
2022-10-17T10:28:51.073Z,71.26
2022-10-17T10:29:50.998Z,71.26
2022-10-17T10:30:50.992Z,71.26
2022-10-17T10:31:50.988Z,70.56
2022-10-17T10:32:50.986Z,71.33
2022-10-17T10:33:52.871Z,70.36
2022-10-17T10:34:50.983Z,69.66
2022-10-17T10:35:50.981Z,70.23
2022-10-17T10:36:50.980Z,69.32
2022-10-17T10:37:50.978Z,70.32
2022-10-17T10:38:50.978Z,69.62
2022-10-17T10:39:50.973Z,69.12
2022-10-17T10:40:50.974Z,68.23
2022-10-17T10:41:50.972Z,69.79
2022-10-17T10:42:50.971Z,69.99
2022-10-17T10:43:50.969Z,69.59
2022-10-17T10:44:50.968Z,69.59
2022-10-17T10:45:50.967Z,69.79
2022-10-17T10:46:50.966Z,69.69
2022-10-17T10:47:50.962Z,68.89
2022-10-17T10:48:50.962Z,67.69
2022-10-17T10:49:50.960Z,68.79
2022-10-17T10:50:50.959Z,68.59
2022-10-17T10:51:50.956Z,68.79
2022-10-17T10:52:50.962Z,68.69
2022-10-17T10:53:50.953Z,68.69
2022-10-17T10:54:50.953Z,69.19
2022-10-17T10:55:50.952Z,70.39
2022-10-17T10:56:53.321Z,68.89
2022-10-17T10:57:50.947Z,68.69
2022-10-17T10:58:50.947Z,68.19
2022-10-17T10:59:50.946Z,68.19
2022-10-17T11:00:51.020Z,68.59
2022-10-17T11:01:50.942Z,67.79
2022-10-17T11:02:58.099Z,68.56
2022-10-17T11:04:43.879Z,67.56
2022-10-17T11:05:43.866Z,67.96
2022-10-17T11:07:58.935Z,67.43
2022-10-17T11:08:58.924Z,67.03
2022-10-17T11:11:03.507Z,67.23
2022-10-17T11:12:03.097Z,67.33
2022-10-17T11:13:56.009Z,67.03
2022-10-17T11:14:56.006Z,67.23
2022-10-17T11:16:48.946Z,66.73
2022-10-17T11:17:49.010Z,66.80
2022-10-17T11:19:53.429Z,65.60
2022-10-17T11:20:53.433Z,65.30
2022-10-17T11:21:53.425Z,65.97
2022-10-17T11:22:53.421Z,66.06
2022-10-17T11:23:53.424Z,65.60
2022-10-17T11:24:53.422Z,65.87
2022-10-17T11:25:53.414Z,65.87
2022-10-17T11:26:53.419Z,65.56
2022-10-17T11:27:53.417Z,64.87
2022-10-17T11:28:53.502Z,65.47
2022-10-17T11:29:53.417Z,64.77
2022-10-17T11:30:53.418Z,64.14
2022-10-17T11:31:53.413Z,63.37
2022-10-17T11:32:53.414Z,62.45
2022-10-17T11:33:53.404Z,63.64
2022-10-17T11:34:53.407Z,62.91
2022-10-17T11:35:53.408Z,63.81
2022-10-17T11:36:53.406Z,63.44
2022-10-17T11:37:53.407Z,63.24
2022-10-17T11:38:53.406Z,63.24
2022-10-17T11:39:53.405Z,63.24
2022-10-17T11:40:53.405Z,62.31
2022-10-17T11:41:55.415Z,63.14
2022-10-17T11:42:53.407Z,63.64
2022-10-17T11:43:53.409Z,63.11
2022-10-17T11:44:53.401Z,62.31
2022-10-17T11:45:53.401Z,63.01
2022-10-17T11:46:53.395Z,63.41
2022-10-17T11:47:53.395Z,63.71
2022-10-17T11:48:53.397Z,63.61
2022-10-17T11:49:53.554Z,63.08
2022-10-17T11:52:01.932Z,63.01
2022-10-17T11:52:57.108Z,63.41
2022-10-17T11:53:53.396Z,63.01
2022-10-17T11:54:53.407Z,62.81
2022-10-17T11:55:53.392Z,63.21
2022-10-17T11:56:53.393Z,63.41
2022-10-17T11:57:53.386Z,63.48
2022-10-17T11:58:53.392Z,62.91
2022-10-17T11:59:53.392Z,62.88
2022-10-17T12:00:53.387Z,63.48
2022-10-17T12:01:53.389Z,61.69
2022-10-17T12:02:53.389Z,61.99
2022-10-17T12:03:53.388Z,61.79
2022-10-17T12:04:53.420Z,62.26
2022-10-17T12:05:53.392Z,61.46
2022-10-17T12:06:53.385Z,62.35
2022-10-17T12:07:53.394Z,61.55
2022-10-17T12:08:53.388Z,61.53
2022-10-17T12:09:53.384Z,60.63
2022-10-17T12:10:53.386Z,60.03
2022-10-17T12:11:53.383Z,60.73
2022-10-17T12:12:53.386Z,60.70
2022-10-17T12:13:53.379Z,60.50
2022-10-17T12:14:53.398Z,60.60
2022-10-17T12:15:53.383Z,60.90
2022-10-17T12:16:53.391Z,60.50
2022-10-17T12:17:53.381Z,60.40
2022-10-17T12:18:53.391Z,60.21
2022-10-17T12:19:53.388Z,60.60
2022-10-17T12:20:53.385Z,60.30
2022-10-17T12:21:53.389Z,60.70
2022-10-17T12:22:53.383Z,60.80
2022-10-17T12:23:53.382Z,59.61
2022-10-17T12:24:53.383Z,60.21
2022-10-17T12:25:54.229Z,60.50
2022-10-17T12:26:56.442Z,60.03
2022-10-17T12:27:53.385Z,59.94
2022-10-17T12:28:53.477Z,59.41
2022-10-17T12:29:53.380Z,59.81
2022-10-17T12:30:53.383Z,59.74
2022-10-17T12:31:53.379Z,60.33
2022-10-17T12:33:05.271Z,59.53
2022-10-17T12:33:53.379Z,59.94
2022-10-17T12:34:53.383Z,59.31
2022-10-17T12:35:53.378Z,59.61
2022-10-17T12:36:53.378Z,59.31
2022-10-17T12:37:57.323Z,59.21
2022-10-17T12:38:53.382Z,59.04
2022-10-17T12:39:53.440Z,60.11
2022-10-17T12:40:53.383Z,59.51
2022-10-17T12:41:53.378Z,59.41
2022-10-17T12:42:53.382Z,59.01
2022-10-17T12:43:53.389Z,59.91
2022-10-17T12:44:53.382Z,60.08
2022-10-17T12:45:53.379Z,59.61
2022-10-17T12:46:53.380Z,59.21
2022-10-17T12:47:53.387Z,59.51
2022-10-17T12:48:53.379Z,59.01
2022-10-17T12:49:56.602Z,60.13
2022-10-17T12:50:53.383Z,60.11
2022-10-17T12:51:53.380Z,60.40
2022-10-17T12:52:53.382Z,59.41
2022-10-17T12:53:53.380Z,60.60
2022-10-17T12:55:07.231Z,60.03
2022-10-17T12:55:53.386Z,59.61
2022-10-17T12:56:53.383Z,58.61
2022-10-17T12:57:53.381Z,59.91
2022-10-17T12:58:53.379Z,59.21
2022-10-17T12:59:56.688Z,59.70
2022-10-17T13:01:53.439Z,59.81
2022-10-17T13:02:53.382Z,59.81
2022-10-17T13:03:53.379Z,59.21
2022-10-17T13:04:53.650Z,59.31
2022-10-17T13:05:53.379Z,60.11
2022-10-17T13:06:53.381Z,59.41
2022-10-17T13:07:53.382Z,59.01
2022-10-17T13:08:56.084Z,58.41
2022-10-17T13:09:53.380Z,60.30
2022-10-17T13:10:53.385Z,59.83
2022-10-17T13:11:53.378Z,59.51
2022-10-17T13:12:53.379Z,59.01
2022-10-17T13:13:53.384Z,60.00
2022-10-17T13:14:53.382Z,59.91
2022-10-17T13:15:53.382Z,60.00
2022-10-17T13:16:53.379Z,59.51
2022-10-17T13:17:53.384Z,59.11
2022-10-17T13:18:53.381Z,59.41
2022-10-17T13:19:53.383Z,60.21
2022-10-17T13:20:53.382Z,59.31
2022-10-17T13:21:53.382Z,59.31
2022-10-17T13:22:53.381Z,59.94
2022-10-17T13:23:53.384Z,59.91
2022-10-17T13:24:53.380Z,60.40
2022-10-17T13:25:53.389Z,58.61
2022-10-17T13:26:53.452Z,59.41
2022-10-17T13:27:53.387Z,58.61
2022-10-17T13:28:53.441Z,59.91
2022-10-17T13:29:53.381Z,59.61
2022-10-17T13:30:54.702Z,60.00
2022-10-17T13:31:53.391Z,60.00
2022-10-17T13:32:53.385Z,59.68
2022-10-17T13:33:53.389Z,59.08
2022-10-17T13:34:53.386Z,59.38
2022-10-17T13:36:00.387Z,58.98
2022-10-17T13:36:53.387Z,58.78
2022-10-17T13:37:54.134Z,58.88
2022-10-17T13:38:53.394Z,58.78
2022-10-17T13:39:55.661Z,58.88
2022-10-17T13:41:01.394Z,59.68
2022-10-17T13:41:53.383Z,59.18
2022-10-17T13:42:53.385Z,58.78
2022-10-17T13:43:53.384Z,58.78
2022-10-17T13:44:53.387Z,59.18
2022-10-17T13:45:53.387Z,59.58
2022-10-17T13:46:53.394Z,58.69
2022-10-17T13:47:53.388Z,58.39
2022-10-17T13:48:53.394Z,58.78
2022-10-17T13:49:55.401Z,58.78
2022-10-17T13:50:53.385Z,58.78
2022-10-17T13:51:53.389Z,59.18
2022-10-17T13:52:53.386Z,58.98
2022-10-17T13:53:53.387Z,59.08
2022-10-17T13:54:53.382Z,59.88
2022-10-17T13:56:09.367Z,59.38
2022-10-17T13:56:53.384Z,58.88
2022-10-17T13:57:53.387Z,58.71
2022-10-17T13:58:53.386Z,60.08
2022-10-17T13:59:53.388Z,59.70
2022-10-17T14:00:53.434Z,59.70
2022-10-17T14:01:53.387Z,58.91